sensor_id;sensor_type;location;lat;lon;timestamp;pressure;altitude;pressure_sealevel;temperature;humidity
59170;BME280;52474;52.236;5.114;2022-09-24T00:01:08;101341.38;;;13.04;100.00
59170;BME280;52474;52.236;5.114;2022-09-24T00:03:34;101343.91;;;13.05;100.00
59170;BME280;52474;52.236;5.114;2022-09-24T00:06:02;101320.22;;;12.93;100.00
59170;BME280;52474;52.236;5.114;2022-09-24T00:08:28;101346.84;;;13.02;100.00
59170;BME280;52474;52.236;5.114;2022-09-24T00:10:53;101314.31;;;12.89;100.00
59170;BME280;52474;52.236;5.114;2022-09-24T00:13:21;101329.59;;;12.97;100.00
59170;BME280;52474;52.236;5.114;2022-09-24T00:15:48;101341.78;;;12.99;100.00
59170;BME280;52474;52.236;5.114;2022-09-24T00:18:16;101323.00;;;12.91;100.00
59170;BME280;52474;52.236;5.114;2022-09-24T00:20:43;101339.97;;;13.00;100.00
59170;BME280;52474;52.236;5.114;2022-09-24T00:23:10;101335.78;;;12.97;100.00
59170;BME280;52474;52.236;5.114;2022-09-24T00:25:45;101331.41;;;12.96;100.00
59170;BME280;52474;52.236;5.114;2022-09-24T00:28:31;101312.06;;;12.84;100.00
59170;BME280;52474;52.236;5.114;2022-09-24T00:30:58;101312.31;;;12.81;100.00
59170;BME280;52474;52.236;5.114;2022-09-24T00:33:27;101326.50;;;12.92;100.00
59170;BME280;52474;52.236;5.114;2022-09-24T00:35:58;101309.81;;;12.80;100.00
59170;BME280;52474;52.236;5.114;2022-09-24T00:38:25;101322.03;;;12.92;100.00
59170;BME280;52474;52.236;5.114;2022-09-24T00:40:51;101319.50;;;12.91;100.00
59170;BME280;52474;52.236;5.114;2022-09-24T00:43:33;101301.38;;;12.75;100.00
59170;BME280;52474;52.236;5.114;2022-09-24T00:49:00;101324.38;;;12.85;100.00
59170;BME280;52474;52.236;5.114;2022-09-24T00:51:28;101294.13;;;12.77;100.00
59170;BME280;52474;52.236;5.114;2022-09-24T00:54:03;101311.22;;;12.84;100.00
59170;BME280;52474;52.236;5.114;2022-09-24T00:56:33;101306.63;;;12.86;100.00
59170;BME280;52474;52.236;5.114;2022-09-24T00:59:02;101298.09;;;12.82;100.00
59170;BME280;52474;52.236;5.114;2022-09-24T01:01:29;101306.88;;;12.83;100.00
59170;BME280;52474;52.236;5.114;2022-09-24T01:03:56;101296.38;;;12.81;100.00
59170;BME280;52474;52.236;5.114;2022-09-24T01:06:23;101299.88;;;12.82;100.00
59170;BME280;52474;52.236;5.114;2022-09-24T01:08:50;101296.06;;;12.75;100.00
59170;BME280;52474;52.236;5.114;2022-09-24T01:16:31;101289.41;;;12.80;100.00
59170;BME280;52474;52.236;5.114;2022-09-24T01:22:28;101289.41;;;12.80;100.00
59170;BME280;52474;52.236;5.114;2022-09-24T01:25:14;101277.47;;;12.75;100.00
59170;BME280;52474;52.236;5.114;2022-09-24T01:28:17;101284.91;;;12.81;100.00
59170;BME280;52474;52.236;5.114;2022-09-24T01:30:46;101262.63;;;12.72;100.00
59170;BME280;52474;52.236;5.114;2022-09-24T01:33:17;101279.47;;;12.82;100.00
59170;BME280;52474;52.236;5.114;2022-09-24T01:35:57;101276.09;;;12.80;100.00
59170;BME280;52474;52.236;5.114;2022-09-24T01:38:29;101259.13;;;12.72;100.00
59170;BME280;52474;52.236;5.114;2022-09-24T01:40:59;101273.44;;;12.80;100.00
59170;BME280;52474;52.236;5.114;2022-09-24T01:43:27;101269.38;;;12.76;100.00
59170;BME280;52474;52.236;5.114;2022-09-24T01:45:55;101262.38;;;12.75;100.00
59170;BME280;52474;52.236;5.114;2022-09-24T01:48:24;101267.81;;;12.74;100.00
59170;BME280;52474;52.236;5.114;2022-09-24T01:53:29;101264.31;;;12.73;100.00
59170;BME280;52474;52.236;5.114;2022-09-24T01:56:06;101263.22;;;12.76;100.00
59170;BME280;52474;52.236;5.114;2022-09-24T01:58:47;101262.50;;;12.74;100.00
59170;BME280;52474;52.236;5.114;2022-09-24T02:01:19;101258.44;;;12.70;100.00
59170;BME280;52474;52.236;5.114;2022-09-24T02:03:56;101258.44;;;12.70;100.00
59170;BME280;52474;52.236;5.114;2022-09-24T02:06:39;101242.59;;;12.58;100.00
59170;BME280;52474;52.236;5.114;2022-09-24T02:09:28;101265.72;;;12.67;100.00
59170;BME280;52474;52.236;5.114;2022-09-24T02:11:55;101253.38;;;12.66;100.00
59170;BME280;52474;52.236;5.114;2022-09-24T02:14:23;101234.63;;;12.58;100.00
59170;BME280;52474;52.236;5.114;2022-09-24T02:16:48;101253.38;;;12.66;100.00
59170;BME280;52474;52.236;5.114;2022-09-24T02:19:22;101240.50;;;12.62;100.00
59170;BME280;52474;52.236;5.114;2022-09-24T02:21:51;101252.94;;;12.61;100.00
59170;BME280;52474;52.236;5.114;2022-09-24T02:24:29;101242.31;;;12.61;100.00
59170;BME280;52474;52.236;5.114;2022-09-24T02:26:57;101248.06;;;12.66;100.00
59170;BME280;52474;52.236;5.114;2022-09-24T02:29:23;101245.97;;;12.60;100.00
59170;BME280;52474;52.236;5.114;2022-09-24T02:31:51;101244.97;;;12.61;100.00
59170;BME280;52474;52.236;5.114;2022-09-24T02:34:22;101240.22;;;12.55;100.00
59170;BME280;52474;52.236;5.114;2022-09-24T02:37:06;101244.97;;;12.61;100.00
59170;BME280;52474;52.236;5.114;2022-09-24T02:39:32;101244.00;;;12.62;100.00
59170;BME280;52474;52.236;5.114;2022-09-24T02:41:59;101243.44;;;12.59;100.00
59170;BME280;52474;52.236;5.114;2022-09-24T02:44:25;101226.34;;;12.52;100.00
59170;BME280;52474;52.236;5.114;2022-09-24T02:46:51;101222.16;;;12.49;100.00
59170;BME280;52474;52.236;5.114;2022-09-24T02:49:17;101222.84;;;12.51;100.00
59170;BME280;52474;52.236;5.114;2022-09-24T02:51:43;101229.00;;;12.52;100.00
59170;BME280;52474;52.236;5.114;2022-09-24T02:54:09;101229.00;;;12.52;100.00
59170;BME280;52474;52.236;5.114;2022-09-24T02:56:35;101211.47;;;12.39;100.00
59170;BME280;52474;52.236;5.114;2022-09-24T02:59:02;101231.78;;;12.50;100.00
59170;BME280;52474;52.236;5.114;2022-09-24T03:01:28;101213.56;;;12.36;100.00
59170;BME280;52474;52.236;5.114;2022-09-24T03:03:54;101228.97;;;12.42;100.00
59170;BME280;52474;52.236;5.114;2022-09-24T03:06:20;101230.22;;;12.48;100.00
59170;BME280;52474;52.236;5.114;2022-09-24T03:08:46;101233.31;;;12.43;100.00
59170;BME280;52474;52.236;5.114;2022-09-24T03:11:12;101217.63;;;12.40;100.00
59170;BME280;52474;52.236;5.114;2022-09-24T03:13:39;101219.72;;;12.36;100.00
59170;BME280;52474;52.236;5.114;2022-09-24T03:16:06;101200.25;;;12.26;100.00
59170;BME280;52474;52.236;5.114;2022-09-24T03:18:32;101195.19;;;12.23;100.00
59170;BME280;52474;52.236;5.114;2022-09-24T03:21:20;101223.81;;;12.40;100.00
59170;BME280;52474;52.236;5.114;2022-09-24T03:23:47;101195.66;;;12.28;100.00
59170;BME280;52474;52.236;5.114;2022-09-24T03:26:13;101202.63;;;12.29;100.00
59170;BME280;52474;52.236;5.114;2022-09-24T03:28:39;101225.47;;;12.41;100.00
59170;BME280;52474;52.236;5.114;2022-09-24T03:31:05;101229.13;;;12.40;100.00
59170;BME280;52474;52.236;5.114;2022-09-24T03:36:07;101229.13;;;12.40;100.00
59170;BME280;52474;52.236;5.114;2022-09-24T03:38:34;101211.75;;;12.36;100.00
59170;BME280;52474;52.236;5.114;2022-09-24T03:41:00;101215.53;;;12.34;100.00
59170;BME280;52474;52.236;5.114;2022-09-24T03:43:27;101222.50;;;12.35;100.00
59170;BME280;52474;52.236;5.114;2022-09-24T03:45:53;101204.56;;;12.27;100.00
59170;BME280;52474;52.236;5.114;2022-09-24T03:48:21;101218.03;;;12.35;100.00
59170;BME280;52474;52.236;5.114;2022-09-24T03:50:47;101220.94;;;12.32;100.00
59170;BME280;52474;52.236;5.114;2022-09-24T03:53:14;101218.03;;;12.35;100.00
59170;BME280;52474;52.236;5.114;2022-09-24T03:55:44;101219.84;;;12.35;100.00
59170;BME280;52474;52.236;5.114;2022-09-24T03:58:12;101205.81;;;12.23;100.00
59170;BME280;52474;52.236;5.114;2022-09-24T04:00:38;101204.97;;;12.22;100.00
59170;BME280;52474;52.236;5.114;2022-09-24T04:03:04;101228.09;;;12.32;100.00
59170;BME280;52474;52.236;5.114;2022-09-24T04:05:30;101194.31;;;12.13;100.00
59170;BME280;52474;52.236;5.114;2022-09-24T04:07:59;101197.56;;;12.16;100.00
59170;BME280;52474;52.236;5.114;2022-09-24T04:10:25;101217.03;;;12.27;100.00
59170;BME280;52474;52.236;5.114;2022-09-24T04:12:51;101211.13;;;12.23;100.00
59170;BME280;52474;52.236;5.114;2022-09-24T04:15:17;101207.19;;;12.17;100.00
59170;BME280;52474;52.236;5.114;2022-09-24T04:17:54;101200.34;;;12.15;100.00
59170;BME280;52474;52.236;5.114;2022-09-24T04:20:21;101212.09;;;12.22;100.00
59170;BME280;52474;52.236;5.114;2022-09-24T04:22:53;101196.13;;;12.12;100.00
59170;BME280;52474;52.236;5.114;2022-09-24T04:25:20;101202.31;;;12.22;100.00
59170;BME280;52474;52.236;5.114;2022-09-24T04:27:54;101209.06;;;12.27;100.00
59170;BME280;52474;52.236;5.114;2022-09-24T04:30:22;101189.38;;;12.08;100.00
59170;BME280;52474;52.236;5.114;2022-09-24T04:32:49;101211.53;;;12.18;100.00
59170;BME280;52474;52.236;5.114;2022-09-24T04:35:17;101203.56;;;12.18;100.00
59170;BME280;52474;52.236;5.114;2022-09-24T04:37:44;101203.81;;;12.15;100.00
59170;BME280;52474;52.236;5.114;2022-09-24T04:40:11;101191.81;;;12.11;100.00
59170;BME280;52474;52.236;5.114;2022-09-24T04:42:38;101207.19;;;12.17;100.00
59170;BME280;52474;52.236;5.114;2022-09-24T04:45:05;101218.53;;;12.19;100.00
59170;BME280;52474;52.236;5.114;2022-09-24T04:47:33;101203.56;;;12.18;100.00
59170;BME280;52474;52.236;5.114;2022-09-24T04:49:59;101214.19;;;12.18;100.00
59170;BME280;52474;52.236;5.114;2022-09-24T04:52:26;101188.44;;;12.09;100.00
59170;BME280;52474;52.236;5.114;2022-09-24T04:54:54;101219.09;;;12.23;100.00
59170;BME280;52474;52.236;5.114;2022-09-24T04:57:22;101211.97;;;12.23;100.00
59170;BME280;52474;52.236;5.114;2022-09-24T04:59:48;101211.38;;;12.20;100.00
59170;BME280;52474;52.236;5.114;2022-09-24T05:02:14;101220.06;;;12.22;100.00
59170;BME280;52474;52.236;5.114;2022-09-24T05:04:41;101219.34;;;12.20;100.00
59170;BME280;52474;52.236;5.114;2022-09-24T05:07:08;101198.47;;;12.06;100.00
59170;BME280;52474;52.236;5.114;2022-09-24T05:09:34;101211.63;;;12.07;100.00
59170;BME280;52474;52.236;5.114;2022-09-24T05:12:01;101220.63;;;12.16;100.00
59170;BME280;52474;52.236;5.114;2022-09-24T05:14:27;101179.72;;;11.97;100.00
59170;BME280;52474;52.236;5.114;2022-09-24T05:16:52;101214.31;;;12.17;100.00
59170;BME280;52474;52.236;5.114;2022-09-24T05:19:19;101218.41;;;12.21;100.00
59170;BME280;52474;52.236;5.114;2022-09-24T05:21:45;101215.16;;;12.17;100.00
59170;BME280;52474;52.236;5.114;2022-09-24T05:24:11;101202.66;;;12.08;100.00
59170;BME280;52474;52.236;5.114;2022-09-24T05:26:37;101218.78;;;12.16;100.00
59170;BME280;52474;52.236;5.114;2022-09-24T05:29:22;101222.72;;;12.22;100.00
59170;BME280;52474;52.236;5.114;2022-09-24T05:31:48;101219.94;;;12.23;100.00
59170;BME280;52474;52.236;5.114;2022-09-24T05:34:14;101221.19;;;12.19;100.00
59170;BME280;52474;52.236;5.114;2022-09-24T05:36:41;101213.09;;;12.21;100.00
59170;BME280;52474;52.236;5.114;2022-09-24T05:39:09;101220.19;;;12.20;100.00
59170;BME280;52474;52.236;5.114;2022-09-24T05:41:36;101221.75;;;12.23;100.00
59170;BME280;52474;52.236;5.114;2022-09-24T05:44:03;101213.72;;;12.13;100.00
59170;BME280;52474;52.236;5.114;2022-09-24T05:46:29;101226.22;;;12.22;100.00
59170;BME280;52474;52.236;5.114;2022-09-24T05:48:55;101220.06;;;12.22;100.00
59170;BME280;52474;52.236;5.114;2022-09-24T05:51:21;101217.41;;;12.22;100.00
59170;BME280;52474;52.236;5.114;2022-09-24T05:53:47;101227.91;;;12.23;100.00
59170;BME280;52474;52.236;5.114;2022-09-24T05:56:13;101217.41;;;12.22;100.00
59170;BME280;52474;52.236;5.114;2022-09-24T05:58:39;101226.66;;;12.28;100.00
59170;BME280;52474;52.236;5.114;2022-09-24T06:01:04;101213.94;;;12.21;100.00
59170;BME280;52474;52.236;5.114;2022-09-24T06:03:30;101226.66;;;12.28;100.00
59170;BME280;52474;52.236;5.114;2022-09-24T06:05:57;101225.69;;;12.29;100.00
59170;BME280;52474;52.236;5.114;2022-09-24T06:08:28;101222.34;;;12.27;100.00
59170;BME280;52474;52.236;5.114;2022-09-24T06:11:01;101238.44;;;12.35;100.00
59170;BME280;52474;52.236;5.114;2022-09-24T06:13:27;101242.53;;;12.39;100.00
59170;BME280;52474;52.236;5.114;2022-09-24T06:16:03;101225.81;;;12.27;100.00
59170;BME280;52474;52.236;5.114;2022-09-24T06:18:30;101248.38;;;12.42;100.00
59170;BME280;52474;52.236;5.114;2022-09-24T06:21:05;101251.19;;;12.41;100.00
59170;BME280;52474;52.236;5.114;2022-09-24T06:23:34;101254.84;;;12.50;100.00
59170;BME280;52474;52.236;5.114;2022-09-24T06:26:00;101257.66;;;12.48;100.00
59170;BME280;52474;52.236;5.114;2022-09-24T06:28:26;101244.63;;;12.45;100.00
59170;BME280;52474;52.236;5.114;2022-09-24T06:30:52;101245.88;;;12.41;100.00
59170;BME280;52474;52.236;5.114;2022-09-24T06:33:18;101270.69;;;12.51;100.00
59170;BME280;52474;52.236;5.114;2022-09-24T06:35:44;101264.38;;;12.52;100.00
59170;BME280;52474;52.236;5.114;2022-09-24T06:38:12;101270.28;;;12.56;100.00
59170;BME280;52474;52.236;5.114;2022-09-24T06:40:39;101268.34;;;12.58;100.00
59170;BME280;52474;52.236;5.114;2022-09-24T06:43:06;101275.63;;;12.65;100.00
59170;BME280;52474;52.236;5.114;2022-09-24T06:45:32;101242.69;;;12.47;100.00
59170;BME280;52474;52.236;5.114;2022-09-24T06:48:00;101275.25;;;12.70;100.00
59170;BME280;52474;52.236;5.114;2022-09-24T06:50:27;101264.56;;;12.60;100.00
59170;BME280;52474;52.236;5.114;2022-09-24T06:52:54;101260.38;;;12.58;100.00
59170;BME280;52474;52.236;5.114;2022-09-24T06:55:20;101284.88;;;12.71;100.00
59170;BME280;52474;52.236;5.114;2022-09-24T06:57:47;101286.00;;;12.68;100.00
59170;BME280;52474;52.236;5.114;2022-09-24T07:00:14;101300.38;;;12.66;100.00
59170;BME280;52474;52.236;5.114;2022-09-24T07:02:40;101291.69;;;12.64;100.00
59170;BME280;52474;52.236;5.114;2022-09-24T07:05:07;101294.66;;;12.71;100.00
59170;BME280;52474;52.236;5.114;2022-09-24T07:07:34;101293.38;;;12.65;100.00
59170;BME280;52474;52.236;5.114;2022-09-24T07:10:02;101301.66;;;12.72;100.00
59170;BME280;52474;52.236;5.114;2022-09-24T07:12:29;101297.34;;;12.71;100.00
59170;BME280;52474;52.236;5.114;2022-09-24T07:14:56;101301.09;;;12.68;100.00
59170;BME280;52474;52.236;5.114;2022-09-24T07:17:25;101309.91;;;12.68;100.00
59170;BME280;52474;52.236;5.114;2022-09-24T07:19:53;101308.22;;;12.67;100.00
59170;BME280;52474;52.236;5.114;2022-09-24T07:22:20;101308.78;;;12.71;100.00
59170;BME280;52474;52.236;5.114;2022-09-24T07:24:46;101296.19;;;12.63;100.00
59170;BME280;52474;52.236;5.114;2022-09-24T07:27:13;101309.78;;;12.70;100.00
59170;BME280;52474;52.236;5.114;2022-09-24T07:29:39;101311.56;;;12.70;100.00
59170;BME280;52474;52.236;5.114;2022-09-24T07:32:05;101305.97;;;12.63;100.00
59170;BME280;52474;52.236;5.114;2022-09-24T07:34:31;101315.78;;;12.72;100.00
59170;BME280;52474;52.236;5.114;2022-09-24T07:36:57;101304.19;;;12.73;100.00
59170;BME280;52474;52.236;5.114;2022-09-24T07:39:23;101299.28;;;12.68;100.00
59170;BME280;52474;52.236;5.114;2022-09-24T07:41:49;101308.91;;;12.70;100.00
59170;BME280;52474;52.236;5.114;2022-09-24T07:44:17;101300.81;;;12.71;100.00
59170;BME280;52474;52.236;5.114;2022-09-24T07:46:49;101282.22;;;12.71;100.00
59170;BME280;52474;52.236;5.114;2022-09-24T07:49:14;101302.81;;;12.79;100.00
59170;BME280;52474;52.236;5.114;2022-09-24T07:51:41;101301.84;;;12.89;100.00
59170;BME280;52474;52.236;5.114;2022-09-24T07:54:07;101298.78;;;12.94;100.00
59170;BME280;52474;52.236;5.114;2022-09-24T07:56:33;101308.06;;;13.00;100.00
59170;BME280;52474;52.236;5.114;2022-09-24T07:58:59;101300.81;;;13.11;100.00
59170;BME280;52474;52.236;5.114;2022-09-24T08:01:25;101304.56;;;13.09;100.00
59170;BME280;52474;52.236;5.114;2022-09-24T08:03:52;101311.31;;;13.13;100.00
59170;BME280;52474;52.236;5.114;2022-09-24T08:06:19;101320.31;;;13.22;100.00
59170;BME280;52474;52.236;5.114;2022-09-24T08:08:50;101319.88;;;13.26;100.00
59170;BME280;52474;52.236;5.114;2022-09-24T08:11:18;101327.84;;;13.26;100.00
59170;BME280;52474;52.236;5.114;2022-09-24T08:13:44;101327.56;;;13.20;100.00
59170;BME280;52474;52.236;5.114;2022-09-24T08:16:10;101330.94;;;13.22;100.00
59170;BME280;52474;52.236;5.114;2022-09-24T08:18:37;101321.78;;;13.05;100.00
59170;BME280;52474;52.236;5.114;2022-09-24T08:21:07;101328.94;;;13.04;100.00
59170;BME280;52474;52.236;5.114;2022-09-24T08:23:37;101349.22;;;13.05;100.00
59170;BME280;52474;52.236;5.114;2022-09-24T08:26:03;101331.72;;;13.03;100.00
59170;BME280;52474;52.236;5.114;2022-09-24T08:28:29;101333.63;;;12.91;100.00
59170;BME280;52474;52.236;5.114;2022-09-24T08:31:00;101348.06;;;12.98;100.00
59170;BME280;52474;52.236;5.114;2022-09-24T08:33:27;101345.28;;;13.00;100.00
59170;BME280;52474;52.236;5.114;2022-09-24T08:35:53;101356.75;;;13.00;100.00
59170;BME280;52474;52.236;5.114;2022-09-24T08:38:19;101354.41;;;13.07;100.00
59170;BME280;52474;52.236;5.114;2022-09-24T08:44:02;101371.84;;;12.90;100.00
59170;BME280;52474;52.236;5.114;2022-09-24T08:46:35;101374.50;;;12.90;100.00
59170;BME280;52474;52.236;5.114;2022-09-24T08:49:28;101339.13;;;12.68;100.00
59170;BME280;52474;52.236;5.114;2022-09-24T08:55:18;101380.97;;;12.97;100.00
59170;BME280;52474;52.236;5.114;2022-09-24T09:00:39;101391.84;;;12.94;100.00
59170;BME280;52474;52.236;5.114;2022-09-24T09:03:33;101380.97;;;12.97;100.00
59170;BME280;52474;52.236;5.114;2022-09-24T09:06:13;101388.78;;;12.99;100.00
59170;BME280;52474;52.236;5.114;2022-09-24T09:11:19;101397.53;;;13.10;100.00
59170;BME280;52474;52.236;5.114;2022-09-24T09:13:55;101388.56;;;13.11;100.00
59170;BME280;52474;52.236;5.114;2022-09-24T09:16:27;101405.25;;;13.23;100.00
59170;BME280;52474;52.236;5.114;2022-09-24T09:19:03;101392.03;;;13.33;100.00
59170;BME280;52474;52.236;5.114;2022-09-24T09:21:38;101399.50;;;13.18;100.00
59170;BME280;52474;52.236;5.114;2022-09-24T09:24:16;101407.28;;;13.31;100.00
59170;BME280;52474;52.236;5.114;2022-09-24T09:26:45;101396.00;;;13.18;100.00
59170;BME280;52474;52.236;5.114;2022-09-24T09:29:13;101413.97;;;13.25;100.00
59170;BME280;52474;52.236;5.114;2022-09-24T09:37:35;101421.00;;;13.36;100.00
59170;BME280;52474;52.236;5.114;2022-09-24T09:43:03;101428.16;;;13.36;100.00
59170;BME280;52474;52.236;5.114;2022-09-24T09:48:14;101433.50;;;13.45;100.00
59170;BME280;52474;52.236;5.114;2022-09-24T09:50:47;101426.22;;;13.38;100.00
59170;BME280;52474;52.236;5.114;2022-09-24T09:53:20;101430.69;;;13.37;100.00
59170;BME280;52474;52.236;5.114;2022-09-24T09:56:01;101432.78;;;13.34;100.00
59170;BME280;52474;52.236;5.114;2022-09-24T09:58:30;101439.94;;;13.43;100.00
59170;BME280;52474;52.236;5.114;2022-09-24T10:01:09;101435.03;;;13.38;100.00
59170;BME280;52474;52.236;5.114;2022-09-24T10:03:47;101435.75;;;13.40;100.00
59170;BME280;52474;52.236;5.114;2022-09-24T10:06:25;101437.16;;;13.44;100.00
59170;BME280;52474;52.236;5.114;2022-09-24T10:08:52;101434.34;;;13.46;100.00
59170;BME280;52474;52.236;5.114;2022-09-24T10:11:18;101440.53;;;13.46;100.00
59170;BME280;52474;52.236;5.114;2022-09-24T10:13:44;101412.47;;;13.32;100.00
59170;BME280;52474;52.236;5.114;2022-09-24T10:16:12;101418.53;;;13.44;100.00
59170;BME280;52474;52.236;5.114;2022-09-24T10:18:46;101444.25;;;13.74;100.00
59170;BME280;52474;52.236;5.114;2022-09-24T10:21:22;101426.88;;;13.80;100.00
59170;BME280;52474;52.236;5.114;2022-09-24T10:23:49;101440.88;;;13.82;100.00
59170;BME280;52474;52.236;5.114;2022-09-24T10:26:16;101441.63;;;13.94;100.00
59170;BME280;52474;52.236;5.114;2022-09-24T10:28:49;101429.72;;;13.98;100.00
59170;BME280;52474;52.236;5.114;2022-09-24T10:31:36;101444.72;;;14.09;100.00
59170;BME280;52474;52.236;5.114;2022-09-24T10:34:04;101440.22;;;14.09;100.00
59170;BME280;52474;52.236;5.114;2022-09-24T10:36:50;101437.97;;;14.05;100.00
59170;BME280;52474;52.236;5.114;2022-09-24T10:39:16;101442.47;;;14.24;100.00
59170;BME280;52474;52.236;5.114;2022-09-24T10:41:53;101440.50;;;14.35;100.00
59170;BME280;52474;52.236;5.114;2022-09-24T10:44:20;101450.88;;;14.48;100.00
59170;BME280;52474;52.236;5.114;2022-09-24T10:46:52;101443.31;;;14.44;100.00
59170;BME280;52474;52.236;5.114;2022-09-24T10:49:36;101444.41;;;14.51;100.00
59170;BME280;52474;52.236;5.114;2022-09-24T10:55:24;101446.53;;;14.28;100.00
59170;BME280;52474;52.236;5.114;2022-09-24T11:00:41;101452.13;;;14.15;100.00
59170;BME280;52474;52.236;5.114;2022-09-24T11:05:53;101454.50;;;13.89;100.00
59170;BME280;52474;52.236;5.114;2022-09-24T11:11:05;101463.75;;;14.04;100.00
59170;BME280;52474;52.236;5.114;2022-09-24T11:13:58;101458.03;;;14.09;100.00
59170;BME280;52474;52.236;5.114;2022-09-24T11:16:50;101465.31;;;14.16;100.00
59170;BME280;52474;52.236;5.114;2022-09-24T11:22:09;101467.69;;;14.29;100.00
59170;BME280;52474;52.236;5.114;2022-09-24T11:25:00;101468.81;;;14.27;100.00
59170;BME280;52474;52.236;5.114;2022-09-24T11:27:45;101462.13;;;14.32;100.00
59170;BME280;52474;52.236;5.114;2022-09-24T11:30:20;101461.13;;;14.43;100.00
59170;BME280;52474;52.236;5.114;2022-09-24T11:46:26;101474.44;;;14.14;100.00
59170;BME280;52474;52.236;5.114;2022-09-24T11:49:20;101479.19;;;14.01;100.00
59170;BME280;52474;52.236;5.114;2022-09-24T11:52:04;101472.75;;;14.03;100.00
59170;BME280;52474;52.236;5.114;2022-09-24T11:54:36;101458.16;;;14.07;100.00
59170;BME280;52474;52.236;5.114;2022-09-24T11:57:12;101478.34;;;14.29;100.00
59170;BME280;52474;52.236;5.114;2022-09-24T11:59:51;101473.31;;;14.26;100.00
59170;BME280;52474;52.236;5.114;2022-09-24T12:02:41;101478.38;;;14.39;100.00
59170;BME280;52474;52.236;5.114;2022-09-24T12:05:34;101477.25;;;14.42;100.00
59170;BME280;52474;52.236;5.114;2022-09-24T12:08:18;101471.38;;;14.28;100.00
59170;BME280;52474;52.236;5.114;2022-09-24T12:10:55;101470.53;;;14.47;100.00
59170;BME280;52474;52.236;5.114;2022-09-24T12:13:27;101473.19;;;14.57;100.00
59170;BME280;52474;52.236;5.114;2022-09-24T12:16:01;101469.66;;;14.76;100.00
59170;BME280;52474;52.236;5.114;2022-09-24T12:18:37;101471.19;;;14.88;100.00
59170;BME280;52474;52.236;5.114;2022-09-24T12:21:10;101462.44;;;15.06;100.00
59170;BME280;52474;52.236;5.114;2022-09-24T12:23:40;101466.63;;;15.08;100.00
59170;BME280;52474;52.236;5.114;2022-09-24T12:26:09;101464.78;;;15.18;100.00
59170;BME280;52474;52.236;5.114;2022-09-24T12:28:47;101445.81;;;15.21;100.00
59170;BME280;52474;52.236;5.114;2022-09-24T12:31:57;101452.47;;;15.08;100.00
59170;BME280;52474;52.236;5.114;2022-09-24T12:34:55;101458.41;;;15.01;100.00
59170;BME280;52474;52.236;5.114;2022-09-24T12:37:30;101439.13;;;15.08;100.00
59170;BME280;52474;52.236;5.114;2022-09-24T12:40:15;101444.34;;;14.99;100.00
59170;BME280;52474;52.236;5.114;2022-09-24T12:42:47;101454.75;;;14.93;100.00
59170;BME280;52474;52.236;5.114;2022-09-24T12:45:19;101450.56;;;14.80;100.00
59170;BME280;52474;52.236;5.114;2022-09-24T12:47:58;101445.84;;;14.74;100.00
59170;BME280;52474;52.236;5.114;2022-09-24T12:50:28;101470.66;;;14.75;100.00
59170;BME280;52474;52.236;5.114;2022-09-24T12:52:55;101463.50;;;14.75;100.00
59170;BME280;52474;52.236;5.114;2022-09-24T12:55:27;101468.13;;;14.73;100.00
59170;BME280;52474;52.236;5.114;2022-09-24T12:58:04;101460.69;;;14.48;100.00
59170;BME280;52474;52.236;5.114;2022-09-24T13:02:56;101458.31;;;14.35;100.00
59170;BME280;52474;52.236;5.114;2022-09-24T13:08:03;101466.03;;;14.28;100.00
59170;BME280;52474;52.236;5.114;2022-09-24T13:10:56;101458.75;;;14.30;100.00
59170;BME280;52474;52.236;5.114;2022-09-24T13:13:25;101463.09;;;14.31;100.00
59170;BME280;52474;52.236;5.114;2022-09-24T13:16:21;101460.53;;;14.30;100.00
59170;BME280;52474;52.236;5.114;2022-09-24T13:18:52;101456.34;;;14.27;100.00
59170;BME280;52474;52.236;5.114;2022-09-24T13:21:24;101468.00;;;14.36;100.00
59170;BME280;52474;52.236;5.114;2022-09-24T13:23:51;101465.75;;;14.41;100.00
59170;BME280;52474;52.236;5.114;2022-09-24T13:28:58;101464.63;;;14.63;100.00
59170;BME280;52474;52.236;5.114;2022-09-24T13:31:45;101464.22;;;14.58;100.00
59170;BME280;52474;52.236;5.114;2022-09-24T13:34:34;101463.78;;;14.53;100.00
59170;BME280;52474;52.236;5.114;2022-09-24T13:37:08;101461.56;;;14.68;100.00
59170;BME280;52474;52.236;5.114;2022-09-24T13:39:41;101459.19;;;14.65;100.00
59170;BME280;52474;52.236;5.114;2022-09-24T13:45:14;101463.38;;;14.77;100.00
59170;BME280;52474;52.236;5.114;2022-09-24T13:47:50;101468.41;;;14.80;100.00
59170;BME280;52474;52.236;5.114;2022-09-24T13:50:18;101475.97;;;14.85;100.00
59170;BME280;52474;52.236;5.114;2022-09-24T13:55:22;101471.06;;;14.90;100.00
59170;BME280;52474;52.236;5.114;2022-09-24T13:57:49;101472.75;;;14.81;100.00
59170;BME280;52474;52.236;5.114;2022-09-24T14:00:20;101480.47;;;14.84;100.00
59170;BME280;52474;52.236;5.114;2022-09-24T14:02:53;101471.63;;;14.84;100.00
59170;BME280;52474;52.236;5.114;2022-09-24T14:05:20;101482.16;;;14.85;100.00
59170;BME280;52474;52.236;5.114;2022-09-24T14:08:13;101484.41;;;14.80;100.00
59170;BME280;52474;52.236;5.114;2022-09-24T14:10:40;101485.38;;;14.79;100.00
59170;BME280;52474;52.236;5.114;2022-09-24T14:13:24;101487.19;;;14.78;100.00
59170;BME280;52474;52.236;5.114;2022-09-24T14:18:16;101481.03;;;14.49;100.00
59170;BME280;52474;52.236;5.114;2022-09-24T14:20:43;101485.97;;;14.53;100.00
59170;BME280;52474;52.236;5.114;2022-09-24T14:23:16;101476.94;;;14.45;100.00